createdAt,value
2019-03-06T00:04:04.499Z,4.30
2019-03-06T00:09:08.302Z,4.40
2019-03-06T00:14:12.444Z,4.40
2019-03-06T00:19:15.820Z,4.50
2019-03-06T00:24:19.917Z,4.60
2019-03-06T00:29:23.350Z,4.60
2019-03-06T00:34:29.051Z,4.70
2019-03-06T00:39:34.035Z,4.70
2019-03-06T00:44:38.380Z,4.70
2019-03-06T00:49:41.791Z,4.70
2019-03-06T00:54:45.195Z,4.80
2019-03-06T00:59:50.383Z,4.80
2019-03-06T01:04:54.521Z,4.80
2019-03-06T01:09:57.929Z,4.80
2019-03-06T01:15:03.147Z,4.90
2019-03-06T01:20:08.877Z,4.80
2019-03-06T01:25:15.914Z,4.90
2019-03-06T01:30:25.327Z,4.80
2019-03-06T01:35:30.369Z,4.80
2019-03-06T01:40:35.597Z,4.80
2019-03-06T01:45:39.002Z,4.90
2019-03-06T01:50:43.088Z,4.80
2019-03-06T01:55:46.501Z,4.80
2019-03-06T02:00:51.408Z,4.80
2019-03-06T02:05:54.965Z,4.80
2019-03-06T02:10:58.545Z,4.80
2019-03-06T02:16:02.007Z,4.80
2019-03-06T02:21:05.913Z,4.80
2019-03-06T02:26:09.322Z,4.80
2019-03-06T02:31:12.734Z,4.70
2019-03-06T02:36:16.384Z,4.80
2019-03-06T02:41:19.777Z,4.70
2019-03-06T02:46:25.099Z,4.70
2019-03-06T02:51:29.984Z,4.70
2019-03-06T02:56:34.758Z,4.70
2019-03-06T03:01:40.656Z,4.70
2019-03-06T03:06:48.646Z,4.70
2019-03-06T03:11:52.082Z,4.70
2019-03-06T03:16:55.477Z,4.80
2019-03-06T03:21:59.054Z,4.80
2019-03-06T03:27:02.591Z,4.80
2019-03-06T03:32:05.997Z,4.80
2019-03-06T03:37:09.678Z,4.80
2019-03-06T03:42:14.722Z,4.80
2019-03-06T03:47:18.502Z,4.80
2019-03-06T03:52:23.770Z,4.80
2019-03-06T03:57:26.877Z,4.80
2019-03-06T04:02:30.500Z,4.90
2019-03-06T04:07:34.016Z,4.90
2019-03-06T04:12:37.423Z,4.90
2019-03-06T04:17:41.972Z,4.70
2019-03-06T04:22:46.039Z,4.60
2019-03-06T04:27:49.616Z,4.60
2019-03-06T04:32:52.987Z,4.50
2019-03-06T04:37:56.313Z,4.50
2019-03-06T04:42:59.754Z,4.40
2019-03-06T04:48:04.090Z,4.40
2019-03-06T04:53:07.505Z,4.30
2019-03-06T04:58:10.906Z,4.30
2019-03-06T05:03:14.258Z,4.30
2019-03-06T05:08:18.194Z,4.40
2019-03-06T05:13:21.795Z,4.40
2019-03-06T05:18:26.923Z,4.40
2019-03-06T05:23:31.501Z,4.40
2019-03-06T05:28:34.773Z,4.30
2019-03-06T05:33:38.163Z,4.30
2019-03-06T05:38:47.746Z,4.30
2019-03-06T05:43:51.300Z,4.30
2019-03-06T05:48:54.602Z,4.40
2019-03-06T05:53:58.272Z,4.40
2019-03-06T05:59:03.284Z,4.30
2019-03-06T06:04:06.926Z,4.40
2019-03-06T06:09:10.270Z,4.40
2019-03-06T06:14:37.880Z,4.50
2019-03-06T06:19:42.760Z,4.50
2019-03-06T06:24:47.728Z,4.40
2019-03-06T06:29:51.153Z,4.40
2019-03-06T06:34:54.777Z,4.40
2019-03-06T06:39:58.196Z,4.40
2019-03-06T06:45:01.601Z,4.40
2019-03-06T06:50:08.245Z,4.50
2019-03-06T06:55:17.526Z,4.50
2019-03-06T07:00:32.847Z,4.60
2019-03-06T07:05:46.917Z,4.60
2019-03-06T07:10:55.457Z,4.70
2019-03-06T07:16:02.193Z,4.70
2019-03-06T07:21:19.213Z,4.70
2019-03-06T07:26:43.691Z,4.70
2019-03-06T07:31:57.457Z,4.80
2019-03-06T07:37:02.424Z,4.80
2019-03-06T07:42:07.765Z,4.90
2019-03-06T07:47:47.762Z,5.00
2019-03-06T07:53:50.042Z,5.00
2019-03-06T07:58:56.264Z,5.10
2019-03-06T08:04:13.863Z,5.20
2019-03-06T08:09:19.291Z,5.20
2019-03-06T08:14:40.552Z,5.30
2019-03-06T08:20:01.740Z,5.40
2019-03-06T08:25:08.306Z,5.50
2019-03-06T08:30:13.477Z,5.70
2019-03-06T08:35:18.320Z,5.90
2019-03-06T08:40:21.653Z,6.10
2019-03-06T08:45:35.827Z,6.20
2019-03-06T08:50:43.192Z,6.30
2019-03-06T08:56:06.057Z,6.30
2019-03-06T09:01:28.188Z,6.60
2019-03-06T09:06:33.208Z,7.20
2019-03-06T09:11:47.036Z,7.30
2019-03-06T09:17:05.415Z,7.20
2019-03-06T09:22:28.376Z,7.00
2019-03-06T09:27:38.458Z,7.10
2019-03-06T09:32:55.504Z,6.90
2019-03-06T09:38:18.611Z,6.90
2019-03-06T09:43:29.244Z,7.00
2019-03-06T09:48:34.653Z,7.10
2019-03-06T09:53:56.169Z,7.00
2019-03-06T09:59:17.626Z,7.00
2019-03-06T10:04:22.699Z,6.90
2019-03-06T10:09:30.629Z,6.90
2019-03-06T10:14:36.889Z,7.00
2019-03-06T10:19:42.896Z,7.10
2019-03-06T10:24:46.519Z,7.10
2019-03-06T10:29:50.687Z,7.00
2019-03-06T10:34:55.070Z,6.90
2019-03-06T10:39:58.715Z,6.90
2019-03-06T10:45:03.762Z,7.00
2019-03-06T10:50:16.532Z,7.10
2019-03-06T10:55:22.528Z,7.10
2019-03-06T11:00:32.323Z,7.20
2019-03-06T11:05:36.768Z,7.30
2019-03-06T11:10:41.099Z,7.50
2019-03-06T11:15:45.069Z,7.50
2019-03-06T11:20:49.144Z,7.40
2019-03-06T11:25:52.576Z,7.50
2019-03-06T11:30:58.547Z,7.60
2019-03-06T11:36:02.882Z,7.90
2019-03-06T11:41:06.205Z,8.00
2019-03-06T11:46:09.900Z,8.10
2019-03-06T11:51:13.922Z,8.10
2019-03-06T11:56:17.289Z,8.10
2019-03-06T12:01:22.336Z,8.10
2019-03-06T12:06:27.350Z,8.30
2019-03-06T12:11:32.619Z,8.50
2019-03-06T12:16:41.748Z,8.80
2019-03-06T12:21:41.207Z,9.40
2019-03-06T12:26:45.400Z,12.20
2019-03-06T12:31:48.782Z,16.50
2019-03-06T12:36:52.189Z,19.90
2019-03-06T12:41:55.643Z,21.60
2019-03-06T12:47:01.113Z,24.80
2019-03-06T12:52:08.570Z,26.10
2019-03-06T12:57:13.582Z,27.30
2019-03-06T13:02:24.806Z,25.80
2019-03-06T13:07:29.180Z,25.40
2019-03-06T13:12:33.181Z,25.00
2019-03-06T13:17:36.542Z,22.40
2019-03-06T13:22:40.136Z,19.20
2019-03-06T13:27:54.426Z,16.90
2019-03-06T13:33:10.682Z,15.30
2019-03-06T13:38:15.929Z,14.30
2019-03-06T13:43:19.263Z,13.50
2019-03-06T13:48:22.793Z,12.70
2019-03-06T13:53:26.218Z,12.20
2019-03-06T13:58:29.657Z,11.70
2019-03-06T14:03:33.037Z,11.40
2019-03-06T14:08:38.416Z,11.20
2019-03-06T14:13:43.441Z,11.00
2019-03-06T14:18:46.811Z,10.80
2019-03-06T14:23:50.256Z,10.70
2019-03-06T14:28:54.910Z,10.50
2019-03-06T14:33:59.237Z,10.40
2019-03-06T14:39:03.119Z,10.30
2019-03-06T14:44:07.152Z,10.20
2019-03-06T14:49:10.559Z,10.00
2019-03-06T14:54:14.559Z,9.90
2019-03-06T14:59:18.282Z,9.80
2019-03-06T15:04:24.918Z,9.70
2019-03-06T15:09:28.353Z,9.60
2019-03-06T15:14:36.030Z,9.50
2019-03-06T15:19:36.905Z,9.30
2019-03-06T15:24:41.649Z,9.20
2019-03-06T15:29:47.729Z,9.20
2019-03-06T15:34:51.109Z,9.10
2019-03-06T15:39:54.565Z,9.10
2019-03-06T15:44:57.971Z,9.10
2019-03-06T15:50:01.465Z,9.00
2019-03-06T15:55:07.801Z,8.90
2019-03-06T16:00:45.439Z,8.70
2019-03-06T16:05:42.706Z,8.60
2019-03-06T16:10:46.145Z,8.50
2019-03-06T16:15:49.537Z,8.50
2019-03-06T16:20:53.286Z,8.40
2019-03-06T16:25:56.963Z,8.30
2019-03-06T16:31:01.186Z,8.10
2019-03-06T16:36:06.340Z,8.00
2019-03-06T16:41:09.739Z,7.80
2019-03-06T16:46:13.152Z,7.70
2019-03-06T16:51:16.515Z,7.50
2019-03-06T16:56:20.241Z,7.40
2019-03-06T17:01:24.738Z,7.30
2019-03-06T17:06:28.104Z,7.20
2019-03-06T17:11:31.505Z,7.20
2019-03-06T17:16:34.870Z,7.10
2019-03-06T17:21:38.283Z,7.00
2019-03-06T17:26:41.802Z,6.90
2019-03-06T17:31:45.415Z,6.80
2019-03-06T17:36:49.116Z,6.70
2019-03-06T17:41:52.507Z,6.60
2019-03-06T17:46:56.753Z,6.50
2019-03-06T17:52:00.195Z,6.40
2019-03-06T17:57:06.827Z,6.40
2019-03-06T18:02:12.525Z,6.30
2019-03-06T18:07:15.901Z,6.20
2019-03-06T18:12:22.042Z,6.10
2019-03-06T18:17:28.325Z,6.00
2019-03-06T18:22:32.183Z,6.00
2019-03-06T18:27:35.558Z,5.90
2019-03-06T18:32:39.023Z,5.90
2019-03-06T18:37:48.500Z,5.90
2019-03-06T18:42:55.502Z,5.80
2019-03-06T18:48:03.955Z,5.70
2019-03-06T18:53:07.786Z,5.60
2019-03-06T19:03:40.229Z,5.50
2019-03-06T19:08:43.612Z,5.40
2019-03-06T19:13:48.093Z,5.40
2019-03-06T19:24:17.059Z,5.20
2019-03-06T19:29:20.455Z,5.20
2019-03-06T19:34:25.271Z,5.10
2019-03-06T19:39:31.560Z,5.00
2019-03-06T19:44:35.483Z,4.90
2019-03-06T19:49:39.218Z,4.90
2019-03-06T19:54:42.599Z,4.90
2019-03-06T19:59:46.289Z,4.80
2019-03-06T20:04:51.429Z,4.70
2019-03-06T20:09:54.841Z,4.70
2019-03-06T20:14:58.234Z,4.70
2019-03-06T20:20:02.206Z,4.70
2019-03-06T20:25:06.905Z,4.60
2019-03-06T20:30:14.207Z,4.50
2019-03-06T20:35:19.638Z,4.50
2019-03-06T20:40:23.958Z,4.40
2019-03-06T20:45:27.370Z,4.40
2019-03-06T20:50:31.164Z,4.40
2019-03-06T20:55:36.881Z,4.40
2019-03-06T21:00:42.089Z,4.40
2019-03-06T21:05:46.552Z,4.40
2019-03-06T21:10:50.080Z,4.40
2019-03-06T21:15:53.922Z,4.40
2019-03-06T21:20:58.628Z,4.40
2019-03-06T21:26:05.421Z,4.40
2019-03-06T21:31:11.177Z,4.40
2019-03-06T21:36:16.803Z,4.30
2019-03-06T21:41:23.445Z,4.30
2019-03-06T21:46:26.908Z,4.30
2019-03-06T21:51:30.347Z,4.30
2019-03-06T21:56:34.887Z,4.30
2019-03-06T22:01:42.415Z,4.30
2019-03-06T22:06:49.066Z,4.30
2019-03-06T22:11:53.866Z,4.20
2019-03-06T22:16:57.902Z,4.30
2019-03-06T22:22:02.381Z,4.30
2019-03-06T22:27:07.378Z,4.30
2019-03-06T22:32:11.274Z,4.30
2019-03-06T22:37:17.621Z,4.30
2019-03-06T22:42:22.386Z,4.30
2019-03-06T22:47:26.136Z,4.30
2019-03-06T22:52:29.492Z,4.30
2019-03-06T22:57:32.854Z,4.30
2019-03-06T23:02:37.459Z,4.20
2019-03-06T23:07:42.375Z,4.20
2019-03-06T23:18:16.356Z,4.20
2019-03-06T23:23:19.768Z,4.10
2019-03-06T23:28:40.451Z,4.10
2019-03-06T23:33:45.996Z,4.00
2019-03-06T23:38:49.617Z,4.10
2019-03-06T23:43:54.121Z,4.10
2019-03-06T23:48:57.509Z,4.10
2019-03-06T23:54:00.931Z,4.10
2019-03-06T23:59:04.298Z,4.00
